sensor_id;sensor_type;location;lat;lon;timestamp;P1;durP1;ratioP1;P2;durP2;ratioP2
70102;SDS011;57470;50.034;15.256;2022-10-29T00:01:29;3.13;;;0.95;;
70102;SDS011;57470;50.034;15.256;2022-10-29T00:03:54;4.47;;;1.43;;
70102;SDS011;57470;50.034;15.256;2022-10-29T00:06:19;4.70;;;1.07;;
70102;SDS011;57470;50.034;15.256;2022-10-29T00:08:45;3.73;;;1.37;;
70102;SDS011;57470;50.034;15.256;2022-10-29T00:11:14;5.10;;;1.33;;
70102;SDS011;57470;50.034;15.256;2022-10-29T00:13:42;4.13;;;1.10;;
70102;SDS011;57470;50.034;15.256;2022-10-29T00:16:10;3.00;;;0.82;;
70102;SDS011;57470;50.034;15.256;2022-10-29T00:18:37;4.45;;;1.17;;
70102;SDS011;57470;50.034;15.256;2022-10-29T00:21:03;4.53;;;0.90;;
70102;SDS011;57470;50.034;15.256;2022-10-29T00:23:30;3.58;;;0.95;;
70102;SDS011;57470;50.034;15.256;2022-10-29T00:25:56;4.47;;;1.40;;
70102;SDS011;57470;50.034;15.256;2022-10-29T00:28:23;2.80;;;0.93;;
70102;SDS011;57470;50.034;15.256;2022-10-29T00:30:49;3.53;;;0.90;;
70102;SDS011;57470;50.034;15.256;2022-10-29T00:33:14;3.77;;;1.07;;
70102;SDS011;57470;50.034;15.256;2022-10-29T00:35:42;4.93;;;1.35;;
70102;SDS011;57470;50.034;15.256;2022-10-29T00:38:17;3.70;;;1.45;;
70102;SDS011;57470;50.034;15.256;2022-10-29T00:40:43;4.23;;;1.30;;
70102;SDS011;57470;50.034;15.256;2022-10-29T00:43:12;3.73;;;0.97;;
70102;SDS011;57470;50.034;15.256;2022-10-29T00:45:40;5.25;;;1.33;;
70102;SDS011;57470;50.034;15.256;2022-10-29T00:48:11;3.53;;;1.02;;
70102;SDS011;57470;50.034;15.256;2022-10-29T00:50:37;4.90;;;1.33;;
70102;SDS011;57470;50.034;15.256;2022-10-29T00:53:02;4.37;;;1.23;;
70102;SDS011;57470;50.034;15.256;2022-10-29T00:55:28;5.17;;;1.57;;
70102;SDS011;57470;50.034;15.256;2022-10-29T00:57:53;5.20;;;1.23;;
70102;SDS011;57470;50.034;15.256;2022-10-29T01:00:21;4.40;;;1.20;;
70102;SDS011;57470;50.034;15.256;2022-10-29T01:02:46;4.27;;;1.23;;
70102;SDS011;57470;50.034;15.256;2022-10-29T01:05:15;4.27;;;1.33;;
70102;SDS011;57470;50.034;15.256;2022-10-29T01:07:47;4.40;;;1.33;;
70102;SDS011;57470;50.034;15.256;2022-10-29T01:10:13;5.17;;;1.00;;
70102;SDS011;57470;50.034;15.256;2022-10-29T01:18:22;6.43;;;1.55;;
70102;SDS011;57470;50.034;15.256;2022-10-29T01:26:43;3.17;;;0.90;;
70102;SDS011;57470;50.034;15.256;2022-10-29T01:35:16;3.63;;;0.82;;
70102;SDS011;57470;50.034;15.256;2022-10-29T01:41:18;5.53;;;1.25;;
70102;SDS011;57470;50.034;15.256;2022-10-29T01:43:50;4.95;;;1.33;;
70102;SDS011;57470;50.034;15.256;2022-10-29T01:46:23;3.25;;;0.85;;
70102;SDS011;57470;50.034;15.256;2022-10-29T01:49:16;4.68;;;1.00;;
70102;SDS011;57470;50.034;15.256;2022-10-29T01:51:49;3.37;;;0.80;;
70102;SDS011;57470;50.034;15.256;2022-10-29T01:54:16;4.10;;;1.10;;
70102;SDS011;57470;50.034;15.256;2022-10-29T01:56:51;4.70;;;1.20;;
70102;SDS011;57470;50.034;15.256;2022-10-29T01:59:19;3.50;;;0.85;;
70102;SDS011;57470;50.034;15.256;2022-10-29T02:04:57;3.83;;;1.00;;
70102;SDS011;57470;50.034;15.256;2022-10-29T02:07:57;5.85;;;1.50;;
70102;SDS011;57470;50.034;15.256;2022-10-29T02:12:59;4.25;;;1.05;;
70102;SDS011;57470;50.034;15.256;2022-10-29T02:17:50;3.72;;;1.10;;
70102;SDS011;57470;50.034;15.256;2022-10-29T02:20:15;4.17;;;1.10;;
70102;SDS011;57470;50.034;15.256;2022-10-29T02:22:41;2.90;;;0.82;;
70102;SDS011;57470;50.034;15.256;2022-10-29T02:25:07;4.77;;;1.50;;
70102;SDS011;57470;50.034;15.256;2022-10-29T02:27:34;5.97;;;1.83;;
70102;SDS011;57470;50.034;15.256;2022-10-29T02:29:59;4.53;;;1.40;;
70102;SDS011;57470;50.034;15.256;2022-10-29T02:32:25;6.70;;;1.30;;
70102;SDS011;57470;50.034;15.256;2022-10-29T02:34:51;4.57;;;1.67;;
70102;SDS011;57470;50.034;15.256;2022-10-29T02:37:16;2.97;;;0.70;;
70102;SDS011;57470;50.034;15.256;2022-10-29T02:39:42;3.00;;;0.88;;
70102;SDS011;57470;50.034;15.256;2022-10-29T02:42:07;3.50;;;0.60;;
70102;SDS011;57470;50.034;15.256;2022-10-29T02:44:32;4.13;;;1.13;;
70102;SDS011;57470;50.034;15.256;2022-10-29T02:46:58;3.13;;;0.73;;
70102;SDS011;57470;50.034;15.256;2022-10-29T02:49:23;4.13;;;1.13;;
70102;SDS011;57470;50.034;15.256;2022-10-29T02:51:49;4.10;;;0.90;;
70102;SDS011;57470;50.034;15.256;2022-10-29T02:54:14;2.77;;;0.60;;
70102;SDS011;57470;50.034;15.256;2022-10-29T02:56:40;3.63;;;1.17;;
70102;SDS011;57470;50.034;15.256;2022-10-29T02:59:05;3.53;;;0.88;;
70102;SDS011;57470;50.034;15.256;2022-10-29T03:01:30;3.77;;;0.50;;
70102;SDS011;57470;50.034;15.256;2022-10-29T03:03:56;3.90;;;0.80;;
70102;SDS011;57470;50.034;15.256;2022-10-29T03:06:22;2.88;;;0.65;;
70102;SDS011;57470;50.034;15.256;2022-10-29T03:08:47;5.47;;;1.63;;
70102;SDS011;57470;50.034;15.256;2022-10-29T03:11:14;3.92;;;0.85;;
70102;SDS011;57470;50.034;15.256;2022-10-29T03:13:39;4.37;;;1.43;;
70102;SDS011;57470;50.034;15.256;2022-10-29T03:16:05;4.43;;;1.00;;
70102;SDS011;57470;50.034;15.256;2022-10-29T03:18:30;3.70;;;1.13;;
70102;SDS011;57470;50.034;15.256;2022-10-29T03:20:56;6.00;;;1.40;;
70102;SDS011;57470;50.034;15.256;2022-10-29T03:23:21;4.03;;;1.13;;
70102;SDS011;57470;50.034;15.256;2022-10-29T03:25:53;3.53;;;1.30;;
70102;SDS011;57470;50.034;15.256;2022-10-29T03:28:20;4.32;;;1.48;;
70102;SDS011;57470;50.034;15.256;2022-10-29T03:30:46;7.00;;;1.73;;
70102;SDS011;57470;50.034;15.256;2022-10-29T03:33:11;4.57;;;1.40;;
70102;SDS011;57470;50.034;15.256;2022-10-29T03:35:37;3.93;;;1.53;;
70102;SDS011;57470;50.034;15.256;2022-10-29T03:38:02;7.33;;;1.47;;
70102;SDS011;57470;50.034;15.256;2022-10-29T03:40:28;4.17;;;1.43;;
70102;SDS011;57470;50.034;15.256;2022-10-29T03:42:53;5.47;;;1.23;;
70102;SDS011;57470;50.034;15.256;2022-10-29T03:45:19;5.32;;;1.90;;
70102;SDS011;57470;50.034;15.256;2022-10-29T03:47:44;4.97;;;1.47;;
70102;SDS011;57470;50.034;15.256;2022-10-29T03:50:09;5.27;;;1.47;;
70102;SDS011;57470;50.034;15.256;2022-10-29T03:52:35;5.37;;;1.57;;
70102;SDS011;57470;50.034;15.256;2022-10-29T03:55:00;4.32;;;1.40;;
70102;SDS011;57470;50.034;15.256;2022-10-29T03:57:26;6.20;;;1.80;;
70102;SDS011;57470;50.034;15.256;2022-10-29T03:59:51;5.37;;;2.07;;
70102;SDS011;57470;50.034;15.256;2022-10-29T04:02:17;6.27;;;1.70;;
70102;SDS011;57470;50.034;15.256;2022-10-29T04:04:42;6.68;;;1.58;;
70102;SDS011;57470;50.034;15.256;2022-10-29T04:07:07;3.70;;;1.00;;
70102;SDS011;57470;50.034;15.256;2022-10-29T04:09:33;4.40;;;1.70;;
70102;SDS011;57470;50.034;15.256;2022-10-29T04:11:58;6.23;;;1.53;;
70102;SDS011;57470;50.034;15.256;2022-10-29T04:14:25;7.40;;;1.35;;
70102;SDS011;57470;50.034;15.256;2022-10-29T04:16:50;4.93;;;2.10;;
70102;SDS011;57470;50.034;15.256;2022-10-29T04:19:15;6.73;;;1.33;;
70102;SDS011;57470;50.034;15.256;2022-10-29T04:21:41;4.70;;;1.10;;
70102;SDS011;57470;50.034;15.256;2022-10-29T04:24:06;4.95;;;1.25;;
70102;SDS011;57470;50.034;15.256;2022-10-29T04:26:32;4.67;;;1.53;;
70102;SDS011;57470;50.034;15.256;2022-10-29T04:28:57;4.07;;;1.30;;
70102;SDS011;57470;50.034;15.256;2022-10-29T04:31:23;5.83;;;1.83;;
70102;SDS011;57470;50.034;15.256;2022-10-29T04:33:48;4.32;;;1.50;;
70102;SDS011;57470;50.034;15.256;2022-10-29T04:36:16;12.47;;;1.50;;
70102;SDS011;57470;50.034;15.256;2022-10-29T04:38:42;4.57;;;1.30;;
70102;SDS011;57470;50.034;15.256;2022-10-29T04:41:07;4.60;;;1.67;;
70102;SDS011;57470;50.034;15.256;2022-10-29T04:43:33;4.80;;;1.83;;
70102;SDS011;57470;50.034;15.256;2022-10-29T04:45:58;3.90;;;1.17;;
70102;SDS011;57470;50.034;15.256;2022-10-29T04:48:24;3.80;;;0.80;;
70102;SDS011;57470;50.034;15.256;2022-10-29T04:50:51;4.95;;;1.77;;
70102;SDS011;57470;50.034;15.256;2022-10-29T04:53:17;4.03;;;1.30;;
70102;SDS011;57470;50.034;15.256;2022-10-29T04:55:43;5.78;;;1.20;;
70102;SDS011;57470;50.034;15.256;2022-10-29T04:58:16;4.95;;;1.92;;
70102;SDS011;57470;50.034;15.256;2022-10-29T05:00:43;5.07;;;1.95;;
70102;SDS011;57470;50.034;15.256;2022-10-29T05:03:09;3.83;;;0.88;;
70102;SDS011;57470;50.034;15.256;2022-10-29T05:05:35;5.07;;;1.50;;
70102;SDS011;57470;50.034;15.256;2022-10-29T05:08:02;3.65;;;1.08;;
70102;SDS011;57470;50.034;15.256;2022-10-29T05:10:30;6.00;;;1.42;;
70102;SDS011;57470;50.034;15.256;2022-10-29T05:13:01;4.20;;;1.33;;
70102;SDS011;57470;50.034;15.256;2022-10-29T05:15:28;4.07;;;1.17;;
70102;SDS011;57470;50.034;15.256;2022-10-29T05:17:54;3.45;;;1.08;;
70102;SDS011;57470;50.034;15.256;2022-10-29T05:20:20;3.75;;;1.20;;
70102;SDS011;57470;50.034;15.256;2022-10-29T05:22:46;4.72;;;1.50;;
70102;SDS011;57470;50.034;15.256;2022-10-29T05:25:11;4.97;;;1.70;;
70102;SDS011;57470;50.034;15.256;2022-10-29T05:27:37;6.80;;;2.07;;
70102;SDS011;57470;50.034;15.256;2022-10-29T05:30:03;3.77;;;1.20;;
70102;SDS011;57470;50.034;15.256;2022-10-29T05:32:29;5.28;;;1.50;;
70102;SDS011;57470;50.034;15.256;2022-10-29T05:34:54;4.83;;;1.37;;
70102;SDS011;57470;50.034;15.256;2022-10-29T05:37:19;4.32;;;1.30;;
70102;SDS011;57470;50.034;15.256;2022-10-29T05:39:45;4.33;;;1.47;;
70102;SDS011;57470;50.034;15.256;2022-10-29T05:42:10;6.03;;;1.73;;
70102;SDS011;57470;50.034;15.256;2022-10-29T05:44:36;5.60;;;1.90;;
70102;SDS011;57470;50.034;15.256;2022-10-29T05:47:01;5.37;;;2.07;;
70102;SDS011;57470;50.034;15.256;2022-10-29T05:49:26;6.07;;;1.60;;
70102;SDS011;57470;50.034;15.256;2022-10-29T05:51:52;5.67;;;2.27;;
70102;SDS011;57470;50.034;15.256;2022-10-29T05:54:17;5.10;;;1.63;;
70102;SDS011;57470;50.034;15.256;2022-10-29T05:56:42;5.77;;;2.03;;
70102;SDS011;57470;50.034;15.256;2022-10-29T05:59:08;4.43;;;1.23;;
70102;SDS011;57470;50.034;15.256;2022-10-29T06:01:33;4.40;;;1.33;;
70102;SDS011;57470;50.034;15.256;2022-10-29T06:03:58;5.77;;;1.57;;
70102;SDS011;57470;50.034;15.256;2022-10-29T06:06:25;4.97;;;1.35;;
70102;SDS011;57470;50.034;15.256;2022-10-29T06:08:51;4.40;;;1.95;;
70102;SDS011;57470;50.034;15.256;2022-10-29T06:11:16;4.80;;;1.63;;
70102;SDS011;57470;50.034;15.256;2022-10-29T06:13:42;4.57;;;1.33;;
70102;SDS011;57470;50.034;15.256;2022-10-29T06:16:07;2.90;;;0.77;;
70102;SDS011;57470;50.034;15.256;2022-10-29T06:18:32;4.23;;;1.40;;
70102;SDS011;57470;50.034;15.256;2022-10-29T06:20:58;4.60;;;1.10;;
70102;SDS011;57470;50.034;15.256;2022-10-29T06:23:24;3.97;;;1.55;;
70102;SDS011;57470;50.034;15.256;2022-10-29T06:25:50;3.50;;;1.40;;
70102;SDS011;57470;50.034;15.256;2022-10-29T06:28:15;3.33;;;0.83;;
70102;SDS011;57470;50.034;15.256;2022-10-29T06:30:46;3.75;;;0.95;;
70102;SDS011;57470;50.034;15.256;2022-10-29T06:33:13;6.40;;;1.90;;
70102;SDS011;57470;50.034;15.256;2022-10-29T06:35:38;3.78;;;1.00;;
70102;SDS011;57470;50.034;15.256;2022-10-29T06:38:04;4.83;;;1.20;;
70102;SDS011;57470;50.034;15.256;2022-10-29T06:40:29;3.77;;;1.10;;
70102;SDS011;57470;50.034;15.256;2022-10-29T06:43:02;5.80;;;2.23;;
70102;SDS011;57470;50.034;15.256;2022-10-29T06:45:29;10.02;;;2.53;;
70102;SDS011;57470;50.034;15.256;2022-10-29T06:47:55;8.95;;;3.22;;
70102;SDS011;57470;50.034;15.256;2022-10-29T06:50:21;10.93;;;5.13;;
70102;SDS011;57470;50.034;15.256;2022-10-29T06:52:54;14.23;;;5.78;;
70102;SDS011;57470;50.034;15.256;2022-10-29T06:55:23;17.47;;;6.50;;
70102;SDS011;57470;50.034;15.256;2022-10-29T06:57:56;25.83;;;9.40;;
70102;SDS011;57470;50.034;15.256;2022-10-29T07:00:22;13.35;;;4.32;;
70102;SDS011;57470;50.034;15.256;2022-10-29T07:02:48;5.88;;;2.75;;
70102;SDS011;57470;50.034;15.256;2022-10-29T07:05:14;4.60;;;1.33;;
70102;SDS011;57470;50.034;15.256;2022-10-29T07:07:39;4.67;;;1.57;;
70102;SDS011;57470;50.034;15.256;2022-10-29T07:10:05;4.43;;;1.50;;
70102;SDS011;57470;50.034;15.256;2022-10-29T07:12:30;4.45;;;1.23;;
70102;SDS011;57470;50.034;15.256;2022-10-29T07:14:56;6.10;;;1.60;;
70102;SDS011;57470;50.034;15.256;2022-10-29T07:17:21;4.10;;;1.17;;
70102;SDS011;57470;50.034;15.256;2022-10-29T07:19:46;3.40;;;0.97;;
70102;SDS011;57470;50.034;15.256;2022-10-29T07:22:12;4.37;;;1.10;;
70102;SDS011;57470;50.034;15.256;2022-10-29T07:24:37;4.43;;;1.42;;
70102;SDS011;57470;50.034;15.256;2022-10-29T07:27:02;3.77;;;1.13;;
70102;SDS011;57470;50.034;15.256;2022-10-29T07:29:30;3.63;;;1.03;;
70102;SDS011;57470;50.034;15.256;2022-10-29T07:31:55;4.75;;;0.93;;
70102;SDS011;57470;50.034;15.256;2022-10-29T07:34:21;4.50;;;1.30;;
70102;SDS011;57470;50.034;15.256;2022-10-29T07:36:46;6.87;;;1.70;;
70102;SDS011;57470;50.034;15.256;2022-10-29T07:39:11;6.40;;;2.03;;
70102;SDS011;57470;50.034;15.256;2022-10-29T07:41:37;5.57;;;2.10;;
70102;SDS011;57470;50.034;15.256;2022-10-29T07:44:02;6.00;;;1.40;;
70102;SDS011;57470;50.034;15.256;2022-10-29T07:46:27;4.67;;;1.43;;
70102;SDS011;57470;50.034;15.256;2022-10-29T07:48:53;6.43;;;2.33;;
70102;SDS011;57470;50.034;15.256;2022-10-29T07:51:18;6.75;;;2.28;;
70102;SDS011;57470;50.034;15.256;2022-10-29T07:53:44;5.37;;;2.27;;
70102;SDS011;57470;50.034;15.256;2022-10-29T07:56:09;5.40;;;1.47;;
70102;SDS011;57470;50.034;15.256;2022-10-29T07:58:36;7.63;;;1.60;;
70102;SDS011;57470;50.034;15.256;2022-10-29T08:01:01;4.40;;;1.57;;
70102;SDS011;57470;50.034;15.256;2022-10-29T08:03:27;5.63;;;1.53;;
70102;SDS011;57470;50.034;15.256;2022-10-29T08:05:55;5.53;;;1.50;;
70102;SDS011;57470;50.034;15.256;2022-10-29T08:08:21;6.32;;;2.28;;
70102;SDS011;57470;50.034;15.256;2022-10-29T08:10:46;5.37;;;1.80;;
70102;SDS011;57470;50.034;15.256;2022-10-29T08:13:11;5.13;;;1.80;;
70102;SDS011;57470;50.034;15.256;2022-10-29T08:15:37;4.30;;;1.50;;
70102;SDS011;57470;50.034;15.256;2022-10-29T08:18:07;4.37;;;1.53;;
70102;SDS011;57470;50.034;15.256;2022-10-29T08:20:34;4.00;;;1.10;;
70102;SDS011;57470;50.034;15.256;2022-10-29T08:23:00;4.85;;;1.55;;
70102;SDS011;57470;50.034;15.256;2022-10-29T08:25:25;5.10;;;1.50;;
70102;SDS011;57470;50.034;15.256;2022-10-29T08:28:01;4.97;;;1.20;;
70102;SDS011;57470;50.034;15.256;2022-10-29T08:30:28;3.65;;;1.17;;
70102;SDS011;57470;50.034;15.256;2022-10-29T08:32:54;5.10;;;1.93;;
70102;SDS011;57470;50.034;15.256;2022-10-29T08:35:19;5.33;;;1.57;;
70102;SDS011;57470;50.034;15.256;2022-10-29T08:37:45;4.77;;;1.60;;
70102;SDS011;57470;50.034;15.256;2022-10-29T08:45:49;4.75;;;1.48;;
70102;SDS011;57470;50.034;15.256;2022-10-29T08:51:24;5.23;;;1.50;;
70102;SDS011;57470;50.034;15.256;2022-10-29T08:53:58;5.30;;;1.92;;
70102;SDS011;57470;50.034;15.256;2022-10-29T08:58:56;6.43;;;1.90;;
70102;SDS011;57470;50.034;15.256;2022-10-29T09:01:27;5.28;;;1.65;;
70102;SDS011;57470;50.034;15.256;2022-10-29T09:03:54;4.20;;;1.40;;
70102;SDS011;57470;50.034;15.256;2022-10-29T09:06:23;5.00;;;2.07;;
70102;SDS011;57470;50.034;15.256;2022-10-29T09:09:02;4.40;;;1.10;;
70102;SDS011;57470;50.034;15.256;2022-10-29T09:11:43;5.75;;;1.25;;
70102;SDS011;57470;50.034;15.256;2022-10-29T09:14:22;4.03;;;1.45;;
70102;SDS011;57470;50.034;15.256;2022-10-29T09:23:04;5.22;;;1.48;;
70102;SDS011;57470;50.034;15.256;2022-10-29T09:25:46;6.03;;;2.00;;
70102;SDS011;57470;50.034;15.256;2022-10-29T09:31:44;5.60;;;1.80;;
70102;SDS011;57470;50.034;15.256;2022-10-29T09:34:36;5.38;;;1.65;;
70102;SDS011;57470;50.034;15.256;2022-10-29T09:37:09;4.65;;;1.52;;
70102;SDS011;57470;50.034;15.256;2022-10-29T09:39:40;8.25;;;1.60;;
70102;SDS011;57470;50.034;15.256;2022-10-29T09:42:11;5.38;;;1.88;;
70102;SDS011;57470;50.034;15.256;2022-10-29T09:44:48;4.80;;;1.57;;
70102;SDS011;57470;50.034;15.256;2022-10-29T09:50:08;5.47;;;1.63;;
70102;SDS011;57470;50.034;15.256;2022-10-29T09:52:42;5.40;;;1.38;;
70102;SDS011;57470;50.034;15.256;2022-10-29T09:55:14;8.10;;;2.35;;
70102;SDS011;57470;50.034;15.256;2022-10-29T09:57:47;5.13;;;1.50;;
70102;SDS011;57470;50.034;15.256;2022-10-29T10:00:18;4.45;;;1.25;;
70102;SDS011;57470;50.034;15.256;2022-10-29T10:05:25;5.55;;;1.73;;
70102;SDS011;57470;50.034;15.256;2022-10-29T10:08:04;10.55;;;1.80;;
70102;SDS011;57470;50.034;15.256;2022-10-29T10:10:35;8.57;;;1.80;;
70102;SDS011;57470;50.034;15.256;2022-10-29T10:13:24;8.38;;;1.95;;
70102;SDS011;57470;50.034;15.256;2022-10-29T10:15:56;9.63;;;1.77;;
70102;SDS011;57470;50.034;15.256;2022-10-29T10:21:10;6.22;;;2.00;;
70102;SDS011;57470;50.034;15.256;2022-10-29T10:23:46;7.07;;;2.07;;
70102;SDS011;57470;50.034;15.256;2022-10-29T10:29:09;8.07;;;1.50;;
70102;SDS011;57470;50.034;15.256;2022-10-29T10:32:30;5.65;;;1.65;;
70102;SDS011;57470;50.034;15.256;2022-10-29T10:37:01;5.77;;;1.83;;
70102;SDS011;57470;50.034;15.256;2022-10-29T10:39:29;4.77;;;1.73;;
70102;SDS011;57470;50.034;15.256;2022-10-29T10:42:16;7.57;;;1.73;;
70102;SDS011;57470;50.034;15.256;2022-10-29T10:44:47;6.30;;;1.92;;
70102;SDS011;57470;50.034;15.256;2022-10-29T10:47:16;6.63;;;2.10;;
70102;SDS011;57470;50.034;15.256;2022-10-29T10:49:44;5.78;;;2.28;;
70102;SDS011;57470;50.034;15.256;2022-10-29T10:52:17;8.73;;;1.80;;
70102;SDS011;57470;50.034;15.256;2022-10-29T10:57:40;6.20;;;1.85;;
70102;SDS011;57470;50.034;15.256;2022-10-29T11:00:16;6.22;;;2.10;;
70102;SDS011;57470;50.034;15.256;2022-10-29T11:02:47;5.57;;;2.00;;
70102;SDS011;57470;50.034;15.256;2022-10-29T11:05:16;5.88;;;1.70;;
70102;SDS011;57470;50.034;15.256;2022-10-29T11:07:55;5.95;;;1.85;;
70102;SDS011;57470;50.034;15.256;2022-10-29T11:10:32;10.93;;;2.30;;
70102;SDS011;57470;50.034;15.256;2022-10-29T11:13:01;6.25;;;2.28;;
70102;SDS011;57470;50.034;15.256;2022-10-29T11:18:18;6.07;;;2.58;;
70102;SDS011;57470;50.034;15.256;2022-10-29T11:23:45;5.95;;;2.30;;
70102;SDS011;57470;50.034;15.256;2022-10-29T11:26:38;5.60;;;2.58;;
70102;SDS011;57470;50.034;15.256;2022-10-29T11:34:48;6.70;;;2.40;;
70102;SDS011;57470;50.034;15.256;2022-10-29T11:40:12;8.52;;;2.40;;
70102;SDS011;57470;50.034;15.256;2022-10-29T11:42:41;3.07;;;0.77;;
70102;SDS011;57470;50.034;15.256;2022-10-29T11:45:10;4.90;;;1.58;;
70102;SDS011;57470;50.034;15.256;2022-10-29T11:47:49;4.45;;;1.58;;
70102;SDS011;57470;50.034;15.256;2022-10-29T11:53:23;6.78;;;1.90;;
70102;SDS011;57470;50.034;15.256;2022-10-29T11:56:17;7.95;;;2.40;;
70102;SDS011;57470;50.034;15.256;2022-10-29T11:58:59;5.45;;;1.83;;
70102;SDS011;57470;50.034;15.256;2022-10-29T12:01:52;5.55;;;1.70;;
70102;SDS011;57470;50.034;15.256;2022-10-29T12:08:05;9.25;;;1.95;;
70102;SDS011;57470;50.034;15.256;2022-10-29T12:24:15;7.13;;;2.53;;
70102;SDS011;57470;50.034;15.256;2022-10-29T12:29:47;9.18;;;1.92;;
70102;SDS011;57470;50.034;15.256;2022-10-29T12:32:35;4.07;;;1.20;;
70102;SDS011;57470;50.034;15.256;2022-10-29T12:35:17;8.18;;;2.47;;
70102;SDS011;57470;50.034;15.256;2022-10-29T12:40:24;6.10;;;1.70;;
70102;SDS011;57470;50.034;15.256;2022-10-29T12:43:02;6.55;;;2.50;;
70102;SDS011;57470;50.034;15.256;2022-10-29T12:45:42;6.97;;;2.03;;
70102;SDS011;57470;50.034;15.256;2022-10-29T12:56:23;4.82;;;1.40;;
70102;SDS011;57470;50.034;15.256;2022-10-29T12:58:49;6.47;;;1.60;;
70102;SDS011;57470;50.034;15.256;2022-10-29T13:11:51;6.82;;;2.00;;
70102;SDS011;57470;50.034;15.256;2022-10-29T13:14:31;7.10;;;2.33;;
70102;SDS011;57470;50.034;15.256;2022-10-29T13:17:02;8.15;;;1.90;;
70102;SDS011;57470;50.034;15.256;2022-10-29T13:22:30;6.03;;;1.70;;
70102;SDS011;57470;50.034;15.256;2022-10-29T13:30:33;8.40;;;1.65;;
70102;SDS011;57470;50.034;15.256;2022-10-29T13:33:01;6.38;;;2.50;;
70102;SDS011;57470;50.034;15.256;2022-10-29T13:35:52;4.95;;;1.77;;
70102;SDS011;57470;50.034;15.256;2022-10-29T13:41:41;7.33;;;1.80;;
70102;SDS011;57470;50.034;15.256;2022-10-29T13:44:20;6.95;;;2.20;;
70102;SDS011;57470;50.034;15.256;2022-10-29T13:49:22;5.40;;;1.90;;
70102;SDS011;57470;50.034;15.256;2022-10-29T13:52:02;7.82;;;2.03;;
70102;SDS011;57470;50.034;15.256;2022-10-29T13:59:44;8.40;;;2.28;;
70102;SDS011;57470;50.034;15.256;2022-10-29T14:07:49;8.00;;;2.60;;
70102;SDS011;57470;50.034;15.256;2022-10-29T14:10:16;7.57;;;2.95;;
70102;SDS011;57470;50.034;15.256;2022-10-29T14:12:46;6.50;;;2.30;;
70102;SDS011;57470;50.034;15.256;2022-10-29T14:15:15;8.63;;;2.10;;
70102;SDS011;57470;50.034;15.256;2022-10-29T14:17:42;6.30;;;2.22;;
70102;SDS011;57470;50.034;15.256;2022-10-29T14:20:41;6.60;;;2.03;;
70102;SDS011;57470;50.034;15.256;2022-10-29T14:23:05;8.95;;;2.30;;
70102;SDS011;57470;50.034;15.256;2022-10-29T14:25:33;6.05;;;1.77;;
70102;SDS011;57470;50.034;15.256;2022-10-29T14:28:07;5.43;;;2.00;;
70102;SDS011;57470;50.034;15.256;2022-10-29T14:30:40;4.60;;;1.60;;
70102;SDS011;57470;50.034;15.256;2022-10-29T14:33:21;5.47;;;1.67;;
70102;SDS011;57470;50.034;15.256;2022-10-29T14:35:47;5.50;;;1.98;;
70102;SDS011;57470;50.034;15.256;2022-10-29T14:38:13;8.03;;;2.17;;
70102;SDS011;57470;50.034;15.256;2022-10-29T14:40:41;7.38;;;2.00;;
70102;SDS011;57470;50.034;15.256;2022-10-29T14:43:16;5.53;;;1.53;;
70102;SDS011;57470;50.034;15.256;2022-10-29T14:45:48;8.05;;;1.88;;
70102;SDS011;57470;50.034;15.256;2022-10-29T14:48:13;7.90;;;2.13;;
70102;SDS011;57470;50.034;15.256;2022-10-29T14:50:46;7.65;;;2.50;;
70102;SDS011;57470;50.034;15.256;2022-10-29T14:53:28;8.38;;;3.10;;
70102;SDS011;57470;50.034;15.256;2022-10-29T14:55:56;8.25;;;2.63;;
70102;SDS011;57470;50.034;15.256;2022-10-29T14:58:24;9.65;;;3.67;;
70102;SDS011;57470;50.034;15.256;2022-10-29T15:00:58;5.97;;;2.47;;
70102;SDS011;57470;50.034;15.256;2022-10-29T15:03:30;7.85;;;2.97;;
70102;SDS011;57470;50.034;15.256;2022-10-29T15:06:09;6.18;;;2.83;;
70102;SDS011;57470;50.034;15.256;2022-10-29T15:08:40;12.13;;;3.00;;
70102;SDS011;57470;50.034;15.256;2022-10-29T15:14:26;8.07;;;2.60;;
70102;SDS011;57470;50.034;15.256;2022-10-29T15:16:56;7.82;;;2.53;;
70102;SDS011;57470;50.034;15.256;2022-10-29T15:19:23;11.23;;;3.17;;
70102;SDS011;57470;50.034;15.256;2022-10-29T15:21:48;8.50;;;2.53;;
70102;SDS011;57470;50.034;15.256;2022-10-29T15:24:16;7.13;;;2.70;;
70102;SDS011;57470;50.034;15.256;2022-10-29T15:26:46;10.35;;;3.47;;
70102;SDS011;57470;50.034;15.256;2022-10-29T15:29:21;14.05;;;3.35;;
70102;SDS011;57470;50.034;15.256;2022-10-29T15:31:50;8.83;;;3.20;;
70102;SDS011;57470;50.034;15.256;2022-10-29T15:34:30;8.57;;;3.58;;
70102;SDS011;57470;50.034;15.256;2022-10-29T15:40:11;9.95;;;3.08;;
70102;SDS011;57470;50.034;15.256;2022-10-29T15:42:41;11.50;;;3.58;;
70102;SDS011;57470;50.034;15.256;2022-10-29T15:50:12;8.00;;;2.75;;
70102;SDS011;57470;50.034;15.256;2022-10-29T15:52:43;11.75;;;2.88;;
70102;SDS011;57470;50.034;15.256;2022-10-29T15:57:49;11.27;;;2.57;;
70102;SDS011;57470;50.034;15.256;2022-10-29T16:00:16;6.47;;;2.40;;
70102;SDS011;57470;50.034;15.256;2022-10-29T16:02:43;7.75;;;2.60;;
70102;SDS011;57470;50.034;15.256;2022-10-29T16:05:10;14.97;;;3.07;;
70102;SDS011;57470;50.034;15.256;2022-10-29T16:07:37;9.57;;;3.10;;
70102;SDS011;57470;50.034;15.256;2022-10-29T16:10:03;6.00;;;2.53;;
70102;SDS011;57470;50.034;15.256;2022-10-29T16:12:29;8.40;;;2.83;;
70102;SDS011;57470;50.034;15.256;2022-10-29T16:14:55;8.23;;;3.05;;
70102;SDS011;57470;50.034;15.256;2022-10-29T16:17:20;6.87;;;2.93;;
70102;SDS011;57470;50.034;15.256;2022-10-29T16:19:45;8.57;;;3.33;;
70102;SDS011;57470;50.034;15.256;2022-10-29T16:22:29;15.43;;;3.72;;
70102;SDS011;57470;50.034;15.256;2022-10-29T16:24:55;11.85;;;4.45;;
70102;SDS011;57470;50.034;15.256;2022-10-29T16:27:20;13.67;;;4.23;;
70102;SDS011;57470;50.034;15.256;2022-10-29T16:29:46;11.97;;;4.30;;
70102;SDS011;57470;50.034;15.256;2022-10-29T16:32:14;10.50;;;4.63;;
70102;SDS011;57470;50.034;15.256;2022-10-29T16:34:41;10.95;;;4.03;;
70102;SDS011;57470;50.034;15.256;2022-10-29T16:37:14;10.68;;;3.95;;
70102;SDS011;57470;50.034;15.256;2022-10-29T16:39:41;11.80;;;4.50;;
70102;SDS011;57470;50.034;15.256;2022-10-29T16:42:29;11.48;;;4.00;;
70102;SDS011;57470;50.034;15.256;2022-10-29T16:44:59;10.47;;;3.97;;
70102;SDS011;57470;50.034;15.256;2022-10-29T16:47:25;7.38;;;3.42;;
70102;SDS011;57470;50.034;15.256;2022-10-29T16:49:51;10.60;;;3.67;;
70102;SDS011;57470;50.034;15.256;2022-10-29T16:52:16;9.70;;;4.57;;
70102;SDS011;57470;50.034;15.256;2022-10-29T16:54:42;18.80;;;5.33;;
70102;SDS011;57470;50.034;15.256;2022-10-29T16:57:07;10.17;;;4.77;;
70102;SDS011;57470;50.034;15.256;2022-10-29T16:59:33;13.57;;;6.30;;
70102;SDS011;57470;50.034;15.256;2022-10-29T17:01:58;11.87;;;5.17;;
70102;SDS011;57470;50.034;15.256;2022-10-29T17:04:24;13.45;;;6.13;;
70102;SDS011;57470;50.034;15.256;2022-10-29T17:06:50;14.90;;;7.93;;
70102;SDS011;57470;50.034;15.256;2022-10-29T17:09:16;14.70;;;6.83;;
70102;SDS011;57470;50.034;15.256;2022-10-29T17:11:41;13.10;;;6.55;;
70102;SDS011;57470;50.034;15.256;2022-10-29T17:14:06;15.33;;;6.43;;
70102;SDS011;57470;50.034;15.256;2022-10-29T17:16:32;14.03;;;6.67;;
70102;SDS011;57470;50.034;15.256;2022-10-29T17:18:57;15.43;;;5.40;;
70102;SDS011;57470;50.034;15.256;2022-10-29T17:21:23;14.93;;;5.40;;
70102;SDS011;57470;50.034;15.256;2022-10-29T17:23:48;12.95;;;4.88;;
70102;SDS011;57470;50.034;15.256;2022-10-29T17:26:14;6.43;;;2.93;;
70102;SDS011;57470;50.034;15.256;2022-10-29T17:28:40;8.18;;;3.03;;